sensor_id;sensor_type;location;lat;lon;timestamp;P1;durP1;ratioP1;P2;durP2;ratioP2
44204;SDS011;30163;42.698;23.344;2022-10-26T00:00:21;38.50;;;10.55;;
44204;SDS011;30163;42.698;23.344;2022-10-26T00:02:46;34.00;;;9.93;;
44204;SDS011;30163;42.698;23.344;2022-10-26T00:05:12;30.42;;;9.70;;
44204;SDS011;30163;42.698;23.344;2022-10-26T00:07:37;44.25;;;10.48;;
44204;SDS011;30163;42.698;23.344;2022-10-26T00:10:03;25.20;;;9.55;;
44204;SDS011;30163;42.698;23.344;2022-10-26T00:12:28;28.58;;;9.65;;
44204;SDS011;30163;42.698;23.344;2022-10-26T00:14:54;39.72;;;10.15;;
44204;SDS011;30163;42.698;23.344;2022-10-26T00:17:19;33.90;;;9.48;;
44204;SDS011;30163;42.698;23.344;2022-10-26T00:19:44;29.73;;;10.30;;
44204;SDS011;30163;42.698;23.344;2022-10-26T00:22:10;27.92;;;10.60;;
44204;SDS011;30163;42.698;23.344;2022-10-26T00:24:35;23.55;;;9.85;;
44204;SDS011;30163;42.698;23.344;2022-10-26T00:27:00;38.40;;;10.10;;
44204;SDS011;30163;42.698;23.344;2022-10-26T00:29:26;31.60;;;10.30;;
44204;SDS011;30163;42.698;23.344;2022-10-26T00:31:51;28.10;;;10.18;;
44204;SDS011;30163;42.698;23.344;2022-10-26T00:34:16;27.20;;;10.15;;
44204;SDS011;30163;42.698;23.344;2022-10-26T00:36:42;27.80;;;9.40;;
44204;SDS011;30163;42.698;23.344;2022-10-26T00:39:09;30.02;;;8.73;;
44204;SDS011;30163;42.698;23.344;2022-10-26T00:41:36;35.38;;;9.02;;
44204;SDS011;30163;42.698;23.344;2022-10-26T00:44:37;27.02;;;9.40;;
44204;SDS011;30163;42.698;23.344;2022-10-26T00:47:08;31.27;;;8.68;;
44204;SDS011;30163;42.698;23.344;2022-10-26T00:49:34;29.33;;;7.93;;
44204;SDS011;30163;42.698;23.344;2022-10-26T00:52:00;25.48;;;8.75;;
44204;SDS011;30163;42.698;23.344;2022-10-26T00:54:25;26.15;;;10.15;;
44204;SDS011;30163;42.698;23.344;2022-10-26T00:56:51;29.60;;;9.38;;
44204;SDS011;30163;42.698;23.344;2022-10-26T00:59:17;21.42;;;8.23;;
44204;SDS011;30163;42.698;23.344;2022-10-26T01:01:43;21.55;;;9.35;;
44204;SDS011;30163;42.698;23.344;2022-10-26T01:04:10;18.48;;;9.18;;
44204;SDS011;30163;42.698;23.344;2022-10-26T01:06:36;25.85;;;9.55;;
44204;SDS011;30163;42.698;23.344;2022-10-26T01:09:02;29.85;;;10.40;;
44204;SDS011;30163;42.698;23.344;2022-10-26T01:11:28;20.30;;;8.05;;
44204;SDS011;30163;42.698;23.344;2022-10-26T01:13:54;19.52;;;8.98;;
44204;SDS011;30163;42.698;23.344;2022-10-26T01:22:08;26.48;;;8.93;;
44204;SDS011;30163;42.698;23.344;2022-10-26T01:27:39;26.50;;;9.50;;
44204;SDS011;30163;42.698;23.344;2022-10-26T01:32:36;25.60;;;9.65;;
44204;SDS011;30163;42.698;23.344;2022-10-26T01:35:07;34.42;;;10.15;;
44204;SDS011;30163;42.698;23.344;2022-10-26T01:37:36;20.60;;;9.52;;
44204;SDS011;30163;42.698;23.344;2022-10-26T01:40:08;25.52;;;9.68;;
44204;SDS011;30163;42.698;23.344;2022-10-26T01:42:37;27.73;;;9.75;;
44204;SDS011;30163;42.698;23.344;2022-10-26T01:45:06;32.28;;;10.52;;
44204;SDS011;30163;42.698;23.344;2022-10-26T01:47:33;19.02;;;9.65;;
44204;SDS011;30163;42.698;23.344;2022-10-26T01:50:01;21.17;;;9.75;;
44204;SDS011;30163;42.698;23.344;2022-10-26T01:52:28;43.17;;;10.68;;
44204;SDS011;30163;42.698;23.344;2022-10-26T01:55:03;31.17;;;10.15;;
44204;SDS011;30163;42.698;23.344;2022-10-26T01:57:49;58.60;;;12.63;;
44204;SDS011;30163;42.698;23.344;2022-10-26T02:00:15;33.67;;;12.05;;
44204;SDS011;30163;42.698;23.344;2022-10-26T02:03:00;35.97;;;12.73;;
44204;SDS011;30163;42.698;23.344;2022-10-26T02:05:58;43.72;;;12.75;;
44204;SDS011;30163;42.698;23.344;2022-10-26T02:08:38;32.53;;;13.10;;
44204;SDS011;30163;42.698;23.344;2022-10-26T02:11:56;41.97;;;13.23;;
44204;SDS011;30163;42.698;23.344;2022-10-26T02:14:17;30.90;;;11.80;;
44204;SDS011;30163;42.698;23.344;2022-10-26T02:16:53;30.38;;;11.95;;
44204;SDS011;30163;42.698;23.344;2022-10-26T02:19:31;40.50;;;12.32;;
44204;SDS011;30163;42.698;23.344;2022-10-26T02:22:40;38.00;;;12.77;;
44204;SDS011;30163;42.698;23.344;2022-10-26T02:24:50;30.50;;;11.75;;
44204;SDS011;30163;42.698;23.344;2022-10-26T02:27:21;31.90;;;12.13;;
44204;SDS011;30163;42.698;23.344;2022-10-26T02:29:49;25.88;;;11.38;;
44204;SDS011;30163;42.698;23.344;2022-10-26T02:32:17;30.30;;;11.73;;
44204;SDS011;30163;42.698;23.344;2022-10-26T02:34:43;36.72;;;11.25;;
44204;SDS011;30163;42.698;23.344;2022-10-26T02:37:10;39.08;;;13.05;;
44204;SDS011;30163;42.698;23.344;2022-10-26T02:39:38;33.88;;;11.15;;
44204;SDS011;30163;42.698;23.344;2022-10-26T02:42:04;40.50;;;13.25;;
44204;SDS011;30163;42.698;23.344;2022-10-26T02:44:32;27.95;;;12.10;;
44204;SDS011;30163;42.698;23.344;2022-10-26T02:47:02;23.97;;;12.07;;
44204;SDS011;30163;42.698;23.344;2022-10-26T02:49:27;27.20;;;12.18;;
44204;SDS011;30163;42.698;23.344;2022-10-26T02:55:04;42.80;;;12.35;;
44204;SDS011;30163;42.698;23.344;2022-10-26T02:57:43;33.22;;;13.32;;
44204;SDS011;30163;42.698;23.344;2022-10-26T03:00:12;31.88;;;14.02;;
44204;SDS011;30163;42.698;23.344;2022-10-26T03:02:43;32.85;;;12.93;;
44204;SDS011;30163;42.698;23.344;2022-10-26T03:05:11;35.47;;;12.43;;
44204;SDS011;30163;42.698;23.344;2022-10-26T03:07:38;35.38;;;13.02;;
44204;SDS011;30163;42.698;23.344;2022-10-26T03:10:04;38.35;;;14.13;;
44204;SDS011;30163;42.698;23.344;2022-10-26T03:12:30;42.58;;;12.55;;
44204;SDS011;30163;42.698;23.344;2022-10-26T03:14:55;30.27;;;12.98;;
44204;SDS011;30163;42.698;23.344;2022-10-26T03:17:20;30.15;;;12.15;;
44204;SDS011;30163;42.698;23.344;2022-10-26T03:19:46;43.05;;;12.98;;
44204;SDS011;30163;42.698;23.344;2022-10-26T03:22:11;34.15;;;13.38;;
44204;SDS011;30163;42.698;23.344;2022-10-26T03:24:37;26.85;;;12.57;;
44204;SDS011;30163;42.698;23.344;2022-10-26T03:27:02;36.63;;;12.65;;
44204;SDS011;30163;42.698;23.344;2022-10-26T03:29:27;39.35;;;14.32;;
44204;SDS011;30163;42.698;23.344;2022-10-26T03:31:53;28.33;;;13.40;;
44204;SDS011;30163;42.698;23.344;2022-10-26T03:34:19;33.58;;;13.98;;
44204;SDS011;30163;42.698;23.344;2022-10-26T03:36:45;33.35;;;12.25;;
44204;SDS011;30163;42.698;23.344;2022-10-26T03:39:10;30.85;;;12.07;;
44204;SDS011;30163;42.698;23.344;2022-10-26T03:41:36;36.95;;;13.23;;
44204;SDS011;30163;42.698;23.344;2022-10-26T03:44:01;29.83;;;11.93;;
44204;SDS011;30163;42.698;23.344;2022-10-26T03:46:27;25.00;;;11.63;;
44204;SDS011;30163;42.698;23.344;2022-10-26T03:48:52;36.83;;;12.45;;
44204;SDS011;30163;42.698;23.344;2022-10-26T03:51:17;35.17;;;12.02;;
44204;SDS011;30163;42.698;23.344;2022-10-26T03:53:43;30.75;;;13.07;;
44204;SDS011;30163;42.698;23.344;2022-10-26T03:56:08;25.95;;;11.98;;
44204;SDS011;30163;42.698;23.344;2022-10-26T03:58:33;31.17;;;11.95;;
44204;SDS011;30163;42.698;23.344;2022-10-26T04:00:59;33.67;;;12.57;;
44204;SDS011;30163;42.698;23.344;2022-10-26T04:03:24;26.50;;;12.75;;
44204;SDS011;30163;42.698;23.344;2022-10-26T04:05:50;30.52;;;11.57;;
44204;SDS011;30163;42.698;23.344;2022-10-26T04:08:15;31.63;;;13.27;;
44204;SDS011;30163;42.698;23.344;2022-10-26T04:10:40;21.05;;;11.80;;
44204;SDS011;30163;42.698;23.344;2022-10-26T04:13:07;27.15;;;11.73;;
44204;SDS011;30163;42.698;23.344;2022-10-26T04:15:33;26.77;;;10.23;;
44204;SDS011;30163;42.698;23.344;2022-10-26T04:17:59;45.65;;;12.35;;
44204;SDS011;30163;42.698;23.344;2022-10-26T04:20:25;28.08;;;12.02;;
44204;SDS011;30163;42.698;23.344;2022-10-26T04:25:23;33.92;;;13.02;;
44204;SDS011;30163;42.698;23.344;2022-10-26T04:27:49;32.63;;;12.55;;
44204;SDS011;30163;42.698;23.344;2022-10-26T04:30:14;32.65;;;13.88;;
44204;SDS011;30163;42.698;23.344;2022-10-26T04:32:40;34.60;;;12.20;;
44204;SDS011;30163;42.698;23.344;2022-10-26T04:35:05;47.88;;;12.45;;
44204;SDS011;30163;42.698;23.344;2022-10-26T04:37:31;43.92;;;13.50;;
44204;SDS011;30163;42.698;23.344;2022-10-26T04:39:57;45.17;;;15.55;;
44204;SDS011;30163;42.698;23.344;2022-10-26T04:42:22;53.83;;;18.00;;
44204;SDS011;30163;42.698;23.344;2022-10-26T04:44:48;38.20;;;16.15;;
44204;SDS011;30163;42.698;23.344;2022-10-26T04:47:13;55.22;;;17.90;;
44204;SDS011;30163;42.698;23.344;2022-10-26T04:49:39;45.90;;;16.95;;
44204;SDS011;30163;42.698;23.344;2022-10-26T04:52:04;44.13;;;16.27;;
44204;SDS011;30163;42.698;23.344;2022-10-26T04:54:30;44.05;;;16.42;;
44204;SDS011;30163;42.698;23.344;2022-10-26T04:56:55;58.80;;;17.30;;
44204;SDS011;30163;42.698;23.344;2022-10-26T04:59:21;47.72;;;16.77;;
44204;SDS011;30163;42.698;23.344;2022-10-26T05:01:46;41.08;;;18.60;;
44204;SDS011;30163;42.698;23.344;2022-10-26T05:04:11;47.78;;;19.70;;
44204;SDS011;30163;42.698;23.344;2022-10-26T05:06:37;52.60;;;19.10;;
44204;SDS011;30163;42.698;23.344;2022-10-26T05:09:02;69.07;;;20.92;;
44204;SDS011;30163;42.698;23.344;2022-10-26T05:11:28;62.15;;;20.25;;
44204;SDS011;30163;42.698;23.344;2022-10-26T05:13:53;61.35;;;19.70;;
44204;SDS011;30163;42.698;23.344;2022-10-26T05:16:18;57.75;;;20.15;;
44204;SDS011;30163;42.698;23.344;2022-10-26T05:18:46;63.38;;;19.02;;
44204;SDS011;30163;42.698;23.344;2022-10-26T05:21:13;62.05;;;21.10;;
44204;SDS011;30163;42.698;23.344;2022-10-26T05:23:43;86.70;;;21.77;;
44204;SDS011;30163;42.698;23.344;2022-10-26T05:26:21;54.95;;;21.17;;
44204;SDS011;30163;42.698;23.344;2022-10-26T05:28:47;73.05;;;22.30;;
44204;SDS011;30163;42.698;23.344;2022-10-26T05:31:13;53.65;;;20.90;;
44204;SDS011;30163;42.698;23.344;2022-10-26T05:33:38;61.38;;;20.58;;
44204;SDS011;30163;42.698;23.344;2022-10-26T05:36:04;81.75;;;24.58;;
44204;SDS011;30163;42.698;23.344;2022-10-26T05:38:30;63.65;;;19.13;;
44204;SDS011;30163;42.698;23.344;2022-10-26T05:40:56;63.17;;;20.23;;
44204;SDS011;30163;42.698;23.344;2022-10-26T05:43:22;56.78;;;20.67;;
44204;SDS011;30163;42.698;23.344;2022-10-26T05:45:48;70.88;;;21.70;;
44204;SDS011;30163;42.698;23.344;2022-10-26T05:48:14;59.03;;;20.80;;
44204;SDS011;30163;42.698;23.344;2022-10-26T05:50:40;66.22;;;22.00;;
44204;SDS011;30163;42.698;23.344;2022-10-26T05:53:05;70.32;;;21.02;;
44204;SDS011;30163;42.698;23.344;2022-10-26T05:55:31;57.83;;;20.85;;
